createdAt,value
2022-11-18T00:02:03.002Z,2.30
2022-11-18T00:04:30.361Z,1.40
2022-11-18T00:06:59.262Z,1.30
2022-11-18T00:12:58.889Z,1.70
2022-11-18T00:15:51.723Z,1.73
2022-11-18T00:18:25.388Z,2.63
2022-11-18T00:21:06.667Z,1.93
2022-11-18T00:24:19.632Z,2.50
2022-11-18T00:27:43.448Z,1.83
2022-11-18T00:31:12.525Z,1.90
2022-11-18T00:34:05.811Z,1.90
2022-11-18T00:37:15.071Z,2.90
2022-11-18T00:40:13.279Z,2.60
2022-11-18T00:46:09.761Z,3.43
2022-11-18T00:49:48.089Z,4.60
2022-11-18T01:06:57.489Z,3.90
2022-11-18T01:16:51.303Z,5.40
2022-11-18T01:23:14.256Z,4.43
2022-11-18T01:25:43.751Z,4.20
2022-11-18T01:28:11.468Z,3.47
2022-11-18T01:30:39.901Z,2.70
2022-11-18T01:33:08.180Z,1.90
2022-11-18T01:35:35.920Z,1.60
2022-11-18T01:38:03.949Z,1.93
2022-11-18T01:40:32.525Z,2.10
2022-11-18T01:43:00.738Z,2.23
2022-11-18T01:50:40.800Z,1.60
2022-11-18T01:53:12.761Z,1.50
2022-11-18T01:55:45.420Z,1.67
2022-11-18T01:58:18.411Z,1.30
2022-11-18T02:00:48.430Z,1.20
2022-11-18T02:03:19.601Z,1.47
2022-11-18T02:05:49.940Z,1.37
2022-11-18T02:11:03.268Z,1.33
2022-11-18T02:13:31.821Z,1.40
2022-11-18T02:16:07.508Z,1.60
2022-11-18T02:18:46.776Z,1.37
2022-11-18T02:21:29.331Z,1.10
2022-11-18T02:24:26.580Z,1.00
2022-11-18T02:33:35.763Z,1.17
2022-11-18T02:36:08.720Z,1.40
2022-11-18T02:38:44.069Z,1.10
2022-11-18T02:41:17.570Z,1.27
2022-11-18T02:43:48.308Z,1.60
2022-11-18T02:46:21.181Z,1.07
2022-11-18T02:48:52.261Z,0.63
2022-11-18T02:56:31.947Z,1.30
2022-11-18T02:58:59.530Z,1.00
2022-11-18T03:01:30.484Z,1.23
2022-11-18T03:03:58.357Z,1.40
2022-11-18T03:06:34.741Z,1.33
2022-11-18T03:09:12.800Z,1.27
2022-11-18T03:12:00.391Z,1.00
2022-11-18T03:57:25.880Z,1.50
2022-11-18T03:59:59.500Z,1.93
2022-11-18T04:02:29.473Z,1.87
2022-11-18T04:04:58.269Z,2.90
2022-11-18T04:07:32.000Z,2.10
2022-11-18T04:10:06.399Z,2.27
2022-11-18T04:12:42.728Z,2.53
2022-11-18T04:20:17.371Z,15.27
2022-11-18T04:22:44.706Z,14.23
2022-11-18T04:25:12.428Z,3.00
2022-11-18T04:27:40.188Z,2.53
2022-11-18T04:30:09.419Z,3.33
2022-11-18T04:32:37.299Z,3.53
2022-11-18T04:35:06.160Z,3.60
2022-11-18T04:42:39.388Z,4.17
2022-11-18T04:45:08.711Z,4.03
2022-11-18T04:47:36.389Z,3.57
2022-11-18T04:50:04.580Z,3.43
2022-11-18T04:52:32.200Z,3.10
2022-11-18T04:54:59.612Z,3.10
2022-11-18T04:57:26.990Z,9.63
2022-11-18T05:02:36.401Z,5.43
2022-11-18T05:05:04.278Z,3.20
2022-11-18T05:07:31.796Z,5.40
2022-11-18T05:09:59.312Z,5.77
2022-11-18T05:12:47.220Z,20.57
2022-11-18T05:15:14.771Z,21.20
2022-11-18T05:17:44.060Z,22.30
2022-11-18T05:20:13.408Z,20.23
2022-11-18T05:27:45.938Z,13.30
2022-11-18T05:30:15.034Z,13.20
2022-11-18T05:32:42.324Z,9.63
2022-11-18T05:35:10.750Z,6.20
2022-11-18T05:37:38.017Z,8.60
2022-11-18T05:40:06.491Z,8.37
2022-11-18T05:42:51.540Z,8.93
2022-11-18T05:45:20.317Z,12.77
2022-11-18T05:50:27.138Z,11.80
2022-11-18T05:52:55.119Z,15.70
2022-11-18T05:55:26.454Z,12.77
2022-11-18T05:57:53.880Z,5.97
2022-11-18T06:00:22.623Z,17.07
2022-11-18T06:02:52.284Z,18.27
2022-11-18T06:05:22.216Z,11.27
2022-11-18T06:13:43.131Z,5.43
2022-11-18T06:16:13.119Z,12.93
2022-11-18T06:18:42.771Z,5.10
2022-11-18T06:21:10.965Z,5.57
2022-11-18T06:23:43.879Z,2.80
2022-11-18T06:26:11.839Z,4.03
2022-11-18T06:28:41.530Z,2.67
2022-11-18T06:46:59.149Z,3.10
2022-11-18T06:49:35.144Z,3.73
2022-11-18T06:52:02.403Z,3.23
2022-11-18T06:54:30.141Z,3.33
2022-11-18T06:56:57.819Z,10.80
2022-11-18T06:59:25.262Z,14.30
2022-11-18T07:01:56.629Z,27.73
2022-11-18T07:12:07.024Z,14.33
2022-11-18T07:14:34.693Z,21.13
2022-11-18T07:17:01.991Z,23.90
2022-11-18T07:19:35.467Z,19.63
2022-11-18T07:22:04.519Z,18.90
2022-11-18T07:24:32.317Z,17.90
2022-11-18T07:27:00.018Z,18.83
2022-11-18T07:37:27.301Z,7.93
2022-11-18T07:39:55.188Z,9.20
2022-11-18T07:42:22.838Z,9.63
2022-11-18T07:44:50.615Z,8.10
2022-11-18T07:47:18.032Z,9.40
2022-11-18T07:49:45.320Z,11.40
2022-11-18T07:52:13.294Z,9.47
2022-11-18T08:12:58.610Z,9.87
2022-11-18T08:15:26.241Z,10.83
2022-11-18T08:17:53.480Z,10.73
2022-11-18T08:20:21.510Z,17.27
2022-11-18T08:22:48.910Z,8.50
2022-11-18T08:25:16.510Z,8.63
2022-11-18T08:27:44.188Z,9.57
2022-11-18T08:38:15.438Z,7.37
2022-11-18T08:40:45.368Z,9.67
2022-11-18T08:43:13.268Z,8.50
2022-11-18T08:45:42.292Z,10.53
2022-11-18T08:48:10.076Z,17.77
2022-11-18T08:50:37.809Z,14.60
2022-11-18T08:53:05.220Z,9.57
2022-11-18T09:14:20.394Z,8.43
2022-11-18T09:16:47.778Z,7.07
2022-11-18T09:19:48.192Z,6.17
2022-11-18T09:22:16.210Z,6.37
2022-11-18T09:24:46.251Z,6.83
2022-11-18T09:27:53.319Z,6.57
2022-11-18T09:30:23.108Z,6.47
2022-11-18T09:33:06.971Z,7.60
2022-11-18T09:36:08.190Z,7.57
2022-11-18T09:39:05.379Z,7.60
2022-11-18T09:49:56.450Z,8.53
2022-11-18T09:56:16.383Z,8.83
2022-11-18T10:05:24.566Z,9.97
2022-11-18T10:08:33.560Z,10.63
2022-11-18T10:11:19.592Z,8.87
2022-11-18T10:25:54.192Z,7.30
2022-11-18T10:28:24.646Z,6.63
2022-11-18T10:30:53.054Z,7.03
2022-11-18T10:33:26.822Z,6.50
2022-11-18T10:36:11.729Z,6.23
2022-11-18T10:38:39.698Z,6.97
2022-11-18T10:41:13.361Z,5.53
2022-11-18T10:59:32.491Z,6.43
2022-11-18T11:02:09.485Z,5.63
2022-11-18T11:04:38.370Z,5.60
2022-11-18T11:07:25.756Z,5.83
2022-11-18T11:10:23.785Z,5.10
2022-11-18T11:12:57.784Z,6.27
2022-11-18T11:15:34.409Z,6.37
2022-11-18T11:23:26.841Z,6.33
2022-11-18T11:28:56.224Z,5.87
2022-11-18T11:31:30.601Z,6.33
2022-11-18T11:34:03.388Z,6.10
2022-11-18T11:36:42.642Z,5.97
2022-11-18T11:39:45.389Z,5.63
2022-11-18T12:00:24.408Z,3.90
2022-11-18T12:03:04.903Z,4.27
2022-11-18T12:05:36.242Z,3.87
2022-11-18T12:08:09.392Z,4.60
2022-11-18T12:10:45.871Z,4.27
2022-11-18T12:13:38.373Z,4.40
2022-11-18T12:16:18.810Z,3.93
2022-11-18T12:22:03.329Z,2.87
2022-11-18T12:24:39.839Z,2.90
2022-11-18T12:27:41.304Z,3.03
2022-11-18T12:30:19.789Z,3.70
2022-11-18T12:32:57.468Z,3.63
2022-11-18T12:35:28.870Z,3.20
2022-11-18T12:38:03.499Z,3.50
2022-11-18T12:56:23.068Z,2.33
2022-11-18T12:58:53.260Z,2.70
2022-11-18T13:01:23.331Z,2.63
2022-11-18T13:03:51.017Z,2.80
2022-11-18T13:06:30.376Z,2.47
2022-11-18T13:09:00.985Z,2.67
2022-11-18T13:11:46.841Z,2.73
2022-11-18T13:19:40.489Z,2.60
2022-11-18T13:22:35.861Z,2.40
2022-11-18T13:25:03.377Z,2.23
2022-11-18T13:27:49.460Z,3.03
2022-11-18T13:30:21.288Z,3.03
2022-11-18T13:32:58.373Z,2.90
2022-11-18T13:35:29.644Z,3.87
2022-11-18T13:37:58.946Z,3.13
2022-11-18T13:45:34.355Z,2.57
2022-11-18T13:48:07.977Z,2.40
2022-11-18T13:50:37.738Z,2.90
2022-11-18T13:53:24.465Z,2.67
2022-11-18T13:55:55.258Z,3.30
2022-11-18T13:58:40.043Z,2.90
2022-11-18T14:01:21.782Z,2.50
2022-11-18T14:11:36.736Z,1.80
2022-11-18T14:14:04.509Z,1.57
2022-11-18T14:16:34.446Z,1.50
2022-11-18T14:19:04.235Z,2.03
2022-11-18T14:21:36.436Z,1.50
2022-11-18T14:24:05.176Z,1.73
2022-11-18T14:26:36.021Z,1.40
2022-11-18T14:29:20.714Z,3.30
2022-11-18T14:39:31.527Z,2.10
2022-11-18T14:42:00.439Z,2.40
2022-11-18T14:44:30.379Z,2.03
2022-11-18T14:47:00.639Z,2.00
2022-11-18T14:49:31.014Z,2.70
2022-11-18T14:52:02.184Z,1.80
2022-11-18T14:54:31.129Z,2.13
2022-11-18T15:04:50.208Z,2.43
2022-11-18T15:07:23.396Z,2.67
2022-11-18T15:09:59.087Z,3.20
2022-11-18T15:12:27.025Z,2.20
2022-11-18T15:14:55.365Z,2.37
2022-11-18T15:17:24.468Z,2.50
2022-11-18T15:19:56.765Z,2.17
2022-11-18T15:22:25.695Z,2.60
2022-11-18T15:31:32.687Z,1.80
2022-11-18T15:34:06.954Z,2.23
2022-11-18T15:36:46.277Z,1.80
2022-11-18T15:39:23.501Z,1.83
2022-11-18T15:41:51.739Z,2.40
2022-11-18T15:45:11.444Z,1.73
2022-11-18T15:47:46.057Z,2.50
2022-11-18T15:50:19.927Z,2.17
2022-11-18T15:53:09.637Z,2.73
2022-11-18T15:55:52.578Z,2.07
2022-11-18T16:14:01.699Z,1.73
2022-11-18T16:16:31.065Z,1.67
2022-11-18T16:19:05.547Z,1.70
2022-11-18T16:21:35.680Z,2.20
2022-11-18T16:24:06.600Z,2.17
2022-11-18T16:26:36.991Z,2.10
2022-11-18T16:29:07.179Z,1.70
2022-11-18T16:49:57.650Z,2.10
2022-11-18T16:52:28.148Z,2.53
2022-11-18T16:55:00.527Z,1.90
2022-11-18T16:57:28.478Z,1.70
2022-11-18T16:59:58.549Z,1.67
2022-11-18T17:02:30.444Z,1.77
2022-11-18T17:05:06.109Z,1.90
2022-11-18T17:20:53.860Z,2.20
2022-11-18T17:23:22.168Z,1.50
2022-11-18T17:25:50.454Z,2.43
2022-11-18T17:28:18.976Z,2.20
2022-11-18T17:30:49.981Z,1.90
2022-11-18T17:33:22.649Z,2.10
2022-11-18T17:36:03.639Z,2.37
2022-11-18T17:43:46.186Z,2.13
2022-11-18T17:46:15.127Z,2.13
2022-11-18T17:48:44.736Z,2.57
2022-11-18T17:51:12.727Z,1.73
2022-11-18T17:53:43.487Z,2.70
2022-11-18T17:56:12.696Z,2.20
2022-11-18T17:58:45.307Z,1.97
2022-11-18T18:01:14.983Z,1.90
2022-11-18T18:08:51.106Z,2.57
2022-11-18T18:11:21.276Z,2.10
2022-11-18T18:14:08.539Z,2.00
2022-11-18T18:16:37.187Z,2.20
2022-11-18T18:19:09.858Z,1.80
2022-11-18T18:21:39.209Z,1.87
2022-11-18T18:24:13.178Z,1.77
2022-11-18T18:42:12.303Z,2.17
2022-11-18T18:44:57.866Z,1.73
2022-11-18T18:47:25.629Z,2.63
2022-11-18T18:49:53.905Z,1.93
2022-11-18T18:52:22.669Z,2.23
2022-11-18T18:54:52.918Z,1.83
2022-11-18T18:57:25.565Z,2.00
2022-11-18T19:18:38.886Z,2.13
2022-11-18T19:21:17.016Z,2.93
2022-11-18T19:23:50.753Z,2.17
2022-11-18T19:26:18.838Z,1.97
2022-11-18T19:28:47.562Z,2.30
2022-11-18T19:31:20.767Z,2.40
2022-11-18T19:33:54.205Z,2.77
2022-11-18T19:44:26.847Z,2.70
2022-11-18T19:46:55.128Z,2.80
2022-11-18T19:49:22.944Z,2.40
2022-11-18T19:51:50.863Z,3.03
2022-11-18T19:54:19.942Z,2.03
2022-11-18T19:56:49.091Z,2.37
2022-11-18T19:59:18.093Z,2.10
2022-11-18T20:01:46.719Z,2.43
2022-11-18T20:04:17.458Z,2.47
2022-11-18T20:11:52.892Z,2.73
2022-11-18T20:14:24.904Z,2.30
2022-11-18T20:16:52.941Z,2.10
2022-11-18T20:19:21.768Z,2.77
2022-11-18T20:21:50.454Z,3.13
2022-11-18T20:24:19.256Z,2.93
2022-11-18T20:26:52.005Z,2.40
2022-11-18T20:32:11.821Z,2.50
2022-11-18T20:34:45.015Z,2.73
2022-11-18T20:37:18.787Z,2.73
2022-11-18T20:39:47.866Z,2.23
2022-11-18T20:42:30.428Z,2.80
2022-11-18T20:44:59.906Z,3.50
2022-11-18T20:47:29.175Z,3.10
2022-11-18T20:49:57.683Z,2.73
2022-11-18T20:52:27.178Z,3.53
2022-11-18T21:00:01.353Z,2.77
2022-11-18T21:02:30.379Z,2.40
2022-11-18T21:04:58.931Z,2.83
2022-11-18T21:07:26.954Z,2.67
2022-11-18T21:09:54.881Z,2.90
2022-11-18T21:12:22.975Z,2.77
2022-11-18T21:14:49.748Z,3.73
2022-11-18T21:20:19.886Z,5.47
2022-11-18T21:22:48.929Z,4.83
2022-11-18T21:25:17.586Z,6.50
2022-11-18T21:27:49.780Z,8.30
2022-11-18T21:30:19.595Z,9.67
2022-11-18T21:32:48.009Z,10.73
2022-11-18T21:35:21.534Z,9.17
2022-11-18T21:37:49.329Z,10.10
2022-11-18T21:45:23.546Z,12.23
2022-11-18T21:47:53.768Z,6.13
2022-11-18T21:50:22.316Z,3.73
2022-11-18T21:52:55.935Z,8.17
2022-11-18T21:55:25.038Z,2.13
2022-11-18T21:58:02.659Z,2.53
2022-11-18T22:00:32.688Z,7.40
2022-11-18T22:08:11.325Z,3.63
2022-11-18T22:10:39.643Z,1.93
2022-11-18T22:13:10.242Z,2.43
2022-11-18T22:15:40.975Z,2.93
2022-11-18T22:18:09.394Z,3.03
2022-11-18T22:20:38.368Z,2.90
2022-11-18T22:23:11.685Z,4.50
2022-11-18T22:25:39.133Z,3.53
2022-11-18T22:41:30.726Z,2.93
2022-11-18T22:44:07.045Z,2.80
2022-11-18T22:46:35.647Z,3.17
2022-11-18T22:49:03.660Z,3.20
2022-11-18T22:51:31.732Z,3.23
2022-11-18T22:54:37.614Z,4.83
2022-11-18T22:56:50.459Z,3.33
2022-11-18T23:17:30.995Z,14.03
2022-11-18T23:19:58.429Z,4.67
2022-11-18T23:22:25.855Z,22.23
2022-11-18T23:24:53.325Z,5.73
2022-11-18T23:27:20.955Z,6.33
2022-11-18T23:29:48.915Z,12.50
2022-11-18T23:32:16.970Z,7.23
2022-11-18T23:34:45.807Z,5.60
2022-11-18T23:42:14.826Z,6.37
2022-11-18T23:44:45.223Z,6.83
2022-11-18T23:47:13.318Z,6.50
2022-11-18T23:49:40.667Z,5.27
2022-11-18T23:52:08.212Z,4.93
2022-11-18T23:54:35.660Z,4.90
2022-11-18T23:57:05.497Z,6.13
2022-11-18T23:59:34.715Z,5.20
